createdAt,value
2022-10-11T00:04:30.868Z,9.37
2022-10-11T00:09:36.286Z,7.47
2022-10-11T00:14:41.593Z,7.73
2022-10-11T00:19:46.679Z,8.47
2022-10-11T00:24:53.290Z,9.83
2022-10-11T00:29:59.234Z,9.53
2022-10-11T00:35:06.727Z,11.60
2022-10-11T00:40:15.037Z,12.70
2022-10-11T00:45:32.460Z,11.70
2022-10-11T00:50:38.515Z,11.43
2022-10-11T00:55:46.716Z,19.63
2022-10-11T01:00:53.846Z,16.63
2022-10-11T01:05:59.759Z,16.80
2022-10-11T01:11:05.470Z,17.13
2022-10-11T01:16:16.389Z,17.83
2022-10-11T01:21:59.192Z,18.03
2022-10-11T01:27:28.450Z,16.97
2022-10-11T01:32:42.452Z,16.93
2022-10-11T01:37:56.098Z,16.27
2022-10-11T01:43:03.010Z,15.23
2022-10-11T01:48:10.958Z,15.67
2022-10-11T01:53:38.553Z,14.40
2022-10-11T01:59:01.446Z,15.00
2022-10-11T02:04:09.637Z,13.13
2022-10-11T02:09:18.129Z,13.77
2022-10-11T02:14:26.451Z,15.37
2022-10-11T02:19:34.574Z,14.63
2022-10-11T02:24:43.022Z,15.13
2022-10-11T02:29:51.434Z,15.13
2022-10-11T02:34:59.283Z,14.20
2022-10-11T02:40:16.422Z,13.37
2022-10-11T02:45:27.343Z,13.93
2022-10-11T02:50:33.283Z,13.00
2022-10-11T02:55:38.928Z,13.97
2022-10-11T03:00:44.362Z,13.37
2022-10-11T03:05:49.685Z,13.73
2022-10-11T03:10:55.490Z,14.90
2022-10-11T03:16:07.406Z,15.53
2022-10-11T03:21:07.581Z,14.90
2022-10-11T03:26:12.731Z,14.43
2022-10-11T03:31:18.980Z,14.00
2022-10-11T03:36:24.155Z,12.20
2022-10-11T03:41:29.403Z,11.77
2022-10-11T03:46:34.972Z,11.27
2022-10-11T03:51:40.148Z,10.83
2022-10-11T03:56:45.483Z,11.67
2022-10-11T04:01:50.701Z,11.60
2022-10-11T04:06:55.906Z,12.97
2022-10-11T04:12:01.738Z,14.20
2022-10-11T04:17:07.475Z,16.40
2022-10-11T04:22:12.806Z,19.17
2022-10-11T04:27:17.980Z,20.77
2022-10-11T04:32:24.772Z,18.67
2022-10-11T04:37:30.063Z,14.93
2022-10-11T04:42:36.022Z,13.83
2022-10-11T04:47:41.296Z,12.80
2022-10-11T04:52:46.499Z,12.67
2022-10-11T04:57:51.690Z,12.00
2022-10-11T05:02:57.187Z,12.33
2022-10-11T05:08:02.329Z,9.83
2022-10-11T05:13:07.747Z,11.33
2022-10-11T05:18:12.981Z,10.30
2022-10-11T05:23:18.078Z,10.13
2022-10-11T05:28:23.447Z,10.47
2022-10-11T05:33:28.872Z,10.07
2022-10-11T05:38:34.725Z,10.17
2022-10-11T05:43:39.896Z,11.13
2022-10-11T05:48:45.673Z,11.37
2022-10-11T05:53:50.865Z,11.60
2022-10-11T05:59:01.363Z,11.07
2022-10-11T06:04:04.936Z,9.67
2022-10-11T06:09:10.194Z,9.13
2022-10-11T06:14:17.047Z,7.63
2022-10-11T06:19:22.260Z,7.27
2022-10-11T06:24:27.654Z,6.90
2022-10-11T06:29:32.839Z,6.03
2022-10-11T06:34:38.034Z,5.77
2022-10-11T06:39:43.992Z,5.27
2022-10-11T06:44:49.227Z,4.70
2022-10-11T06:49:54.507Z,3.67
2022-10-11T06:54:59.768Z,3.80
2022-10-11T07:00:11.768Z,3.03
2022-10-11T07:05:14.624Z,3.30
2022-10-11T07:10:20.037Z,2.43
2022-10-11T07:15:25.380Z,2.70
2022-10-11T07:20:30.760Z,2.60
2022-10-11T07:25:36.177Z,3.07
2022-10-11T07:30:42.703Z,2.63
2022-10-11T07:35:48.728Z,2.53
2022-10-11T07:40:54.268Z,3.77
2022-10-11T07:46:01.319Z,3.10
2022-10-11T07:51:09.686Z,2.67
2022-10-11T07:56:17.797Z,2.17
2022-10-11T08:01:24.017Z,2.50
2022-10-11T08:06:32.892Z,2.33
2022-10-11T08:11:40.342Z,2.13
2022-10-11T08:16:45.746Z,2.47
2022-10-11T08:21:51.115Z,2.13
2022-10-11T08:26:56.940Z,2.60
2022-10-11T08:32:02.438Z,2.40
2022-10-11T08:37:07.707Z,3.10
2022-10-11T08:42:18.694Z,2.80
2022-10-11T08:47:35.891Z,2.57
2022-10-11T08:52:56.136Z,2.03
2022-10-11T08:58:03.211Z,2.63
2022-10-11T09:03:39.117Z,1.87
2022-10-11T09:09:06.021Z,2.47
2022-10-11T09:14:16.969Z,2.00
2022-10-11T09:19:34.169Z,2.10
2022-10-11T09:24:56.625Z,2.07
2022-10-11T09:30:16.887Z,2.13
2022-10-11T09:35:23.629Z,1.87
2022-10-11T09:40:51.876Z,2.00
2022-10-11T09:45:57.235Z,2.33
2022-10-11T09:51:08.302Z,2.07
2022-10-11T09:56:13.961Z,1.93
2022-10-11T10:01:28.670Z,2.03
2022-10-11T10:06:34.158Z,1.40
2022-10-11T10:11:39.500Z,1.90
2022-10-11T10:16:44.837Z,1.83
2022-10-11T10:21:53.002Z,1.73
2022-10-11T10:27:20.805Z,1.40
2022-10-11T10:32:28.988Z,1.80
2022-10-11T10:37:37.145Z,1.63
2022-10-11T10:42:42.419Z,2.03
2022-10-11T10:48:05.629Z,5.90
2022-10-11T10:53:37.035Z,2.97
2022-10-11T10:58:57.749Z,1.50
2022-10-11T11:04:32.859Z,2.00
2022-10-11T11:09:52.758Z,2.63
2022-10-11T11:15:03.870Z,1.63
2022-10-11T11:20:12.052Z,1.73
2022-10-11T11:25:41.388Z,1.73
2022-10-11T11:31:00.405Z,2.10
2022-10-11T11:36:08.877Z,1.53
2022-10-11T11:41:26.306Z,1.43
2022-10-11T11:46:35.081Z,2.23
2022-10-11T11:51:43.340Z,1.30
2022-10-11T11:56:57.247Z,3.97
2022-10-11T12:02:35.517Z,1.70
2022-10-11T12:07:55.973Z,1.67
2022-10-11T12:13:19.156Z,1.70
2022-10-11T12:18:24.498Z,1.77
2022-10-11T12:23:35.660Z,1.40
2022-10-11T12:28:48.148Z,1.83
2022-10-11T12:39:23.500Z,1.73
2022-10-11T12:44:31.642Z,1.30
2022-10-11T12:49:48.487Z,1.53
2022-10-11T12:55:14.672Z,1.53
2022-10-11T13:00:30.300Z,1.73
2022-10-11T13:05:50.975Z,1.53
2022-10-11T13:11:00.607Z,2.10
2022-10-11T13:16:11.354Z,2.67
2022-10-11T13:21:38.885Z,11.57
2022-10-11T13:26:47.340Z,134.20
2022-10-11T13:31:52.583Z,7.07
2022-10-11T13:36:59.717Z,10.17
2022-10-11T13:42:08.986Z,8.83
2022-10-11T13:47:20.193Z,6.57
2022-10-11T13:52:28.568Z,5.63
2022-10-11T13:57:44.170Z,3.77
2022-10-11T14:03:10.123Z,4.17
2022-10-11T14:08:33.043Z,4.33
2022-10-11T14:13:40.660Z,2.03
2022-10-11T14:18:48.905Z,3.00
2022-10-11T14:23:57.044Z,2.20
2022-10-11T14:29:06.381Z,15.90
2022-10-11T14:34:23.949Z,3.13
2022-10-11T14:39:31.086Z,8.70
2022-10-11T14:44:36.396Z,3.37
2022-10-11T14:49:41.682Z,4.00
2022-10-11T14:54:48.940Z,26.80
2022-10-11T14:59:54.721Z,6.27
2022-10-11T15:05:01.030Z,41.57
2022-10-11T15:10:13.014Z,21.93
2022-10-11T15:15:21.287Z,6.33
2022-10-11T15:20:42.106Z,31.20
2022-10-11T15:25:47.252Z,33.17
2022-10-11T15:30:54.260Z,21.03
2022-10-11T15:36:00.099Z,12.27
2022-10-11T15:41:05.486Z,12.47
2022-10-11T15:46:17.891Z,15.67
2022-10-11T15:51:23.596Z,16.73
2022-10-11T15:56:33.590Z,17.03
2022-10-11T16:01:35.823Z,16.13
2022-10-11T16:06:41.642Z,20.63
2022-10-11T16:11:47.005Z,26.70
2022-10-11T16:16:52.261Z,19.17
2022-10-11T16:21:57.647Z,24.40
2022-10-11T16:27:03.202Z,19.17
2022-10-11T16:32:08.542Z,14.90
2022-10-11T16:37:14.150Z,13.30
2022-10-11T16:42:20.533Z,12.80
2022-10-11T16:47:27.304Z,14.00
2022-10-11T16:52:32.886Z,13.67
2022-10-11T16:57:42.144Z,13.33
2022-10-11T17:02:47.316Z,13.77
2022-10-11T17:07:54.004Z,16.07
2022-10-11T17:12:59.139Z,18.93
2022-10-11T17:18:04.788Z,18.40
2022-10-11T17:23:10.152Z,16.10
2022-10-11T17:28:15.417Z,19.27
2022-10-11T17:33:20.562Z,22.37
2022-10-11T17:38:29.830Z,25.50
2022-10-11T17:43:40.242Z,27.90
2022-10-11T17:48:48.184Z,28.43
2022-10-11T17:53:53.629Z,27.03
2022-10-11T17:59:01.391Z,24.43
2022-10-11T18:04:11.689Z,28.70
2022-10-11T18:09:18.849Z,43.60
2022-10-11T18:14:24.458Z,40.13
2022-10-11T18:19:29.620Z,52.90
2022-10-11T18:24:34.869Z,48.13
2022-10-11T18:29:40.096Z,52.43
2022-10-11T18:34:45.638Z,92.43
2022-10-11T18:39:50.841Z,108.43
2022-10-11T18:44:57.213Z,94.00
2022-10-11T18:50:17.750Z,112.00
2022-10-11T18:55:22.974Z,131.10
2022-10-11T19:00:40.646Z,180.63
2022-10-11T19:05:37.945Z,243.93
2022-10-11T19:10:43.155Z,256.07
2022-10-11T19:15:48.484Z,289.40
2022-10-11T19:20:53.781Z,315.57
2022-10-11T19:25:59.037Z,260.97
2022-10-11T19:31:10.138Z,217.83
2022-10-11T19:36:15.797Z,157.77
2022-10-11T19:41:22.060Z,110.63
2022-10-11T19:51:38.488Z,71.67
2022-10-11T19:56:44.755Z,72.43
2022-10-11T20:01:53.038Z,75.67
2022-10-11T20:06:56.672Z,60.63
2022-10-11T20:12:01.879Z,51.50
2022-10-11T20:17:07.097Z,59.27
2022-10-11T20:22:12.323Z,61.50
2022-10-11T20:27:17.379Z,54.87
2022-10-11T20:32:22.438Z,48.47
2022-10-11T20:37:27.525Z,51.37
2022-10-11T20:42:32.747Z,47.30
2022-10-11T20:47:38.957Z,46.37
2022-10-11T20:52:44.223Z,52.03
2022-10-11T20:57:49.846Z,53.33
2022-10-11T21:02:54.959Z,56.03
2022-10-11T21:08:00.163Z,56.40
2022-10-11T21:13:06.211Z,57.67
2022-10-11T21:18:12.377Z,52.07
2022-10-11T21:23:19.230Z,48.67
2022-10-11T21:28:24.547Z,48.60
2022-10-11T21:33:30.649Z,46.47
2022-10-11T21:38:37.221Z,44.50
2022-10-11T21:43:42.731Z,41.10
2022-10-11T21:48:50.163Z,40.97
2022-10-11T21:53:56.493Z,35.73
2022-10-11T21:59:01.630Z,29.70
2022-10-11T22:04:10.287Z,31.23
2022-10-11T22:09:16.739Z,29.67
2022-10-11T22:14:22.651Z,33.73
2022-10-11T22:19:27.951Z,32.07
2022-10-11T22:24:33.123Z,35.57
2022-10-11T22:29:38.186Z,35.43
2022-10-11T22:34:43.526Z,41.70
2022-10-11T22:39:48.771Z,40.73
2022-10-11T22:44:54.207Z,47.00
2022-10-11T22:50:00.480Z,39.93
2022-10-11T22:55:06.440Z,38.83
2022-10-11T23:00:12.316Z,37.30
2022-10-11T23:05:17.587Z,37.00
2022-10-11T23:10:22.737Z,38.33
2022-10-11T23:15:27.911Z,33.93
2022-10-11T23:20:32.978Z,32.63
2022-10-11T23:25:38.306Z,32.17
2022-10-11T23:30:43.393Z,33.00
2022-10-11T23:35:48.628Z,30.70
2022-10-11T23:40:55.014Z,31.10
2022-10-11T23:46:01.309Z,30.70
2022-10-11T23:51:07.210Z,37.97
2022-10-11T23:56:13.501Z,32.43
